createdAt,value
2022-09-02T00:00:54.111Z,15.57
2022-09-02T00:03:24.615Z,15.15
2022-09-02T00:05:53.862Z,9.55
2022-09-02T00:08:22.873Z,13.88
2022-09-02T00:10:52.118Z,14.30
2022-09-02T00:13:21.728Z,12.95
2022-09-02T00:15:51.129Z,10.60
2022-09-02T00:18:20.091Z,8.95
2022-09-02T00:20:51.005Z,9.65
2022-09-02T00:23:20.534Z,10.18
2022-09-02T00:25:49.591Z,9.38
2022-09-02T00:28:18.816Z,12.38
2022-09-02T00:30:49.893Z,11.50
2022-09-02T00:33:19.286Z,12.02
2022-09-02T00:35:50.397Z,8.88
2022-09-02T00:38:19.799Z,10.27
2022-09-02T00:40:50.235Z,11.38
2022-09-02T00:43:39.599Z,10.43
2022-09-02T00:46:08.867Z,12.07
2022-09-02T00:48:40.207Z,7.25
2022-09-02T00:51:11.802Z,11.63
2022-09-02T00:53:42.717Z,11.80
2022-09-02T00:56:14.096Z,14.05
2022-09-02T00:58:44.265Z,9.73
2022-09-02T01:01:13.996Z,6.75
2022-09-02T01:03:43.739Z,9.23
2022-09-02T01:06:15.517Z,10.20
2022-09-02T01:08:47.948Z,8.45
2022-09-02T01:11:19.924Z,9.63
2022-09-02T01:13:49.626Z,9.60
2022-09-02T01:16:23.392Z,10.60
2022-09-02T01:18:53.945Z,10.70
2022-09-02T01:21:24.800Z,9.52
2022-09-02T01:23:55.990Z,9.57
2022-09-02T01:26:25.489Z,10.38
2022-09-02T01:28:54.827Z,8.57
2022-09-02T01:31:23.855Z,15.60
2022-09-02T01:33:52.958Z,9.48
2022-09-02T01:36:22.720Z,10.02
2022-09-02T01:38:51.882Z,11.93
2022-09-02T01:41:22.824Z,9.43
2022-09-02T01:43:51.948Z,8.52
2022-09-02T01:46:21.065Z,11.15
2022-09-02T01:48:50.195Z,8.43
2022-09-02T01:51:20.115Z,8.95
2022-09-02T01:53:49.689Z,10.98
2022-09-02T01:56:18.929Z,8.73
2022-09-02T01:58:49.503Z,13.00
2022-09-02T02:01:18.637Z,10.40
2022-09-02T02:03:49.579Z,11.27
2022-09-02T02:06:20.441Z,10.85
2022-09-02T02:08:50.572Z,8.40
2022-09-02T02:11:20.936Z,10.10
2022-09-02T02:13:54.856Z,10.02
2022-09-02T02:16:24.087Z,10.05
2022-09-02T02:18:53.583Z,9.65
2022-09-02T02:21:22.656Z,8.88
2022-09-02T02:23:53.204Z,9.25
2022-09-02T02:26:22.398Z,9.15
2022-09-02T02:28:53.252Z,8.32
2022-09-02T02:31:24.634Z,9.75
2022-09-02T02:33:53.701Z,6.72
2022-09-02T02:36:24.154Z,8.32
2022-09-02T02:38:53.222Z,11.18
2022-09-02T02:41:22.534Z,9.95
2022-09-02T02:43:51.970Z,9.27
2022-09-02T02:46:21.055Z,9.98
2022-09-02T02:48:51.604Z,8.35
2022-09-02T02:51:20.685Z,10.50
2022-09-02T02:53:55.745Z,10.02
2022-09-02T02:56:28.501Z,9.38
2022-09-02T02:58:57.666Z,9.50
2022-09-02T03:01:26.863Z,10.13
2022-09-02T03:04:00.462Z,8.45
2022-09-02T03:06:30.573Z,9.38
2022-09-02T03:09:00.913Z,6.85
2022-09-02T03:11:30.817Z,7.00
2022-09-02T03:14:02.155Z,6.15
2022-09-02T03:16:31.376Z,10.23
2022-09-02T03:19:02.969Z,9.73
2022-09-02T03:21:38.768Z,6.78
2022-09-02T03:24:09.715Z,5.68
2022-09-02T03:26:39.916Z,7.97
2022-09-02T03:29:09.095Z,10.75
2022-09-02T03:31:38.358Z,10.05
2022-09-02T03:34:12.061Z,9.10
2022-09-02T03:36:44.108Z,6.57
2022-09-02T03:39:14.032Z,7.85
2022-09-02T03:41:45.594Z,10.10
2022-09-02T03:44:14.650Z,8.73
2022-09-02T03:46:45.458Z,11.23
2022-09-02T03:49:15.993Z,8.77
2022-09-02T03:51:45.159Z,8.35
2022-09-02T03:54:14.800Z,9.77
2022-09-02T03:56:44.194Z,10.43
2022-09-02T03:59:16.212Z,7.22
2022-09-02T04:01:45.472Z,9.60
2022-09-02T04:04:19.670Z,9.60
2022-09-02T04:06:53.037Z,7.75
2022-09-02T04:09:22.684Z,7.90
2022-09-02T04:11:51.692Z,8.25
2022-09-02T04:14:21.312Z,8.90
2022-09-02T04:16:51.373Z,9.57
2022-09-02T04:19:23.574Z,12.20
2022-09-02T04:21:53.990Z,9.97
2022-09-02T04:24:24.917Z,10.10
2022-09-02T04:26:54.810Z,9.60
2022-09-02T04:29:24.310Z,8.98
2022-09-02T04:31:57.079Z,6.57
2022-09-02T04:34:33.066Z,8.13
2022-09-02T04:37:03.477Z,7.53
2022-09-02T04:39:33.010Z,7.47
2022-09-02T04:42:03.263Z,9.45
2022-09-02T04:44:39.364Z,9.02
2022-09-02T04:47:12.575Z,6.90
2022-09-02T04:49:46.230Z,12.50
2022-09-02T04:52:24.936Z,6.43
2022-09-02T04:54:57.153Z,7.15
2022-09-02T04:57:27.140Z,6.95
2022-09-02T04:59:57.253Z,6.90
2022-09-02T05:02:28.099Z,7.93
2022-09-02T05:05:02.613Z,9.57
2022-09-02T05:07:39.568Z,7.93
2022-09-02T05:10:14.531Z,11.63
2022-09-02T05:12:47.565Z,8.23
2022-09-02T05:15:17.314Z,9.63
2022-09-02T05:17:50.402Z,8.07
2022-09-02T05:20:25.529Z,9.25
2022-09-02T05:25:32.126Z,8.25
2022-09-02T05:28:04.951Z,10.57
2022-09-02T05:30:37.489Z,9.23
2022-09-02T05:33:09.782Z,9.15
2022-09-02T05:35:50.002Z,6.85
2022-09-02T05:38:23.458Z,9.73
2022-09-02T05:40:54.118Z,8.73
2022-09-02T05:43:24.957Z,8.63
2022-09-02T05:45:54.752Z,10.30
2022-09-02T05:48:43.703Z,7.55
2022-09-02T05:51:15.436Z,7.28
2022-09-02T05:53:47.695Z,10.57
2022-09-02T05:56:19.002Z,8.02
2022-09-02T05:58:50.646Z,10.07
2022-09-02T06:03:55.722Z,8.35
2022-09-02T06:06:26.525Z,6.93
2022-09-02T06:08:58.676Z,8.40
2022-09-02T06:14:06.512Z,12.18
2022-09-02T06:16:40.464Z,10.75
2022-09-02T06:19:20.159Z,10.00
2022-09-02T06:21:56.404Z,12.45
2022-09-02T06:24:32.501Z,9.45
2022-09-02T06:27:13.227Z,14.27
2022-09-02T06:29:47.941Z,12.65
2022-09-02T06:32:21.960Z,11.00
2022-09-02T06:34:58.123Z,10.27
2022-09-02T06:37:32.913Z,10.18
2022-09-02T06:40:02.576Z,10.68
2022-09-02T06:42:37.381Z,7.72
2022-09-02T06:45:16.320Z,5.33
2022-09-02T06:47:48.954Z,8.00
2022-09-02T06:50:21.982Z,6.82
2022-09-02T06:52:57.895Z,8.57
2022-09-02T06:55:30.286Z,11.68
2022-09-02T06:58:00.525Z,11.37
2022-09-02T07:00:32.304Z,6.70
2022-09-02T07:03:22.487Z,12.23
2022-09-02T07:06:02.373Z,14.95
2022-09-02T07:08:37.689Z,14.77
2022-09-02T07:11:17.708Z,20.67
2022-09-02T07:13:55.233Z,14.10
2022-09-02T07:16:26.905Z,15.90
2022-09-02T07:18:58.667Z,14.27
2022-09-02T07:21:30.637Z,11.65
2022-09-02T07:24:05.055Z,14.48
2022-09-02T07:26:34.420Z,10.95
2022-09-02T07:29:12.043Z,14.15
2022-09-02T07:31:55.502Z,9.57
2022-09-02T07:34:29.370Z,9.98
2022-09-02T07:37:05.147Z,14.07
2022-09-02T07:39:46.266Z,9.82
2022-09-02T07:42:19.886Z,9.90
2022-09-02T07:44:56.034Z,17.65
2022-09-02T07:47:37.731Z,10.82
2022-09-02T07:50:18.901Z,10.40
2022-09-02T07:53:00.481Z,9.20
2022-09-02T07:55:36.442Z,7.47
2022-09-02T07:58:16.048Z,9.70
2022-09-02T08:00:46.699Z,6.15
2022-09-02T08:03:19.578Z,9.60
2022-09-02T08:05:57.652Z,7.38
2022-09-02T08:08:30.337Z,6.38
2022-09-02T08:11:04.049Z,9.18
2022-09-02T08:13:38.922Z,10.27
2022-09-02T08:16:11.566Z,6.50
2022-09-02T08:18:40.961Z,7.30
2022-09-02T08:21:15.129Z,13.02
2022-09-02T08:23:49.313Z,15.00
2022-09-02T08:26:39.062Z,16.17
2022-09-02T08:29:11.096Z,9.02
2022-09-02T08:31:42.289Z,9.13
2022-09-02T08:34:12.975Z,7.67
2022-09-02T08:36:45.372Z,8.95
2022-09-02T08:39:26.350Z,9.20
2022-09-02T08:42:14.070Z,11.15
2022-09-02T08:44:43.531Z,8.30
2022-09-02T08:47:18.144Z,8.45
2022-09-02T08:49:49.541Z,8.55
2022-09-02T08:52:25.984Z,8.20
2022-09-02T08:54:58.103Z,9.27
2022-09-02T08:57:29.095Z,17.50
2022-09-02T09:00:01.237Z,10.23
2022-09-02T09:02:35.842Z,5.55
2022-09-02T09:05:14.943Z,6.20
2022-09-02T09:07:53.797Z,4.57
2022-09-02T09:10:31.663Z,7.45
2022-09-02T09:13:18.752Z,8.48
2022-09-02T09:15:52.765Z,7.53
2022-09-02T09:18:25.513Z,6.13
2022-09-02T09:20:58.701Z,8.75
2022-09-02T09:23:34.765Z,5.10
2022-09-02T09:26:09.716Z,10.10
2022-09-02T09:28:47.161Z,8.90
2022-09-02T09:31:18.769Z,5.53
2022-09-02T09:33:58.090Z,5.55
2022-09-02T09:36:51.442Z,7.00
2022-09-02T09:39:27.523Z,5.75
2022-09-02T09:41:57.878Z,4.90
2022-09-02T09:44:37.003Z,6.47
2022-09-02T09:47:08.466Z,3.88
2022-09-02T09:49:40.410Z,4.43
2022-09-02T09:52:13.094Z,7.35
2022-09-02T09:54:52.124Z,3.88
2022-09-02T09:57:24.348Z,3.97
2022-09-02T10:00:27.369Z,10.15
2022-09-02T10:02:57.788Z,7.82
2022-09-02T10:05:42.248Z,4.20
2022-09-02T10:08:25.516Z,5.70
2022-09-02T10:11:01.937Z,5.72
2022-09-02T10:13:33.030Z,5.65
2022-09-02T10:16:25.611Z,6.30
2022-09-02T10:19:15.701Z,4.80
2022-09-02T10:21:55.996Z,10.35
2022-09-02T10:25:02.036Z,6.65
2022-09-02T10:27:38.508Z,5.20
2022-09-02T10:30:12.655Z,4.65
2022-09-02T10:33:11.271Z,2.75
2022-09-02T10:35:59.662Z,3.78
2022-09-02T10:38:49.499Z,3.72
2022-09-02T10:41:33.494Z,4.13
2022-09-02T10:44:31.406Z,5.55
2022-09-02T10:47:02.581Z,4.22
2022-09-02T10:49:59.835Z,8.02
2022-09-02T10:52:43.898Z,3.42
2022-09-02T10:55:23.447Z,4.90
2022-09-02T10:58:17.817Z,6.75
2022-09-02T11:00:55.527Z,4.93
2022-09-02T11:03:36.155Z,3.33
2022-09-02T11:06:40.366Z,5.68
2022-09-02T11:09:30.069Z,5.07
2022-09-02T11:12:29.339Z,3.13
2022-09-02T11:15:13.988Z,4.63
2022-09-02T11:17:57.864Z,8.48
2022-09-02T11:20:40.087Z,5.28
2022-09-02T11:23:32.485Z,5.93
2022-09-02T11:26:15.346Z,6.75
2022-09-02T11:28:54.814Z,7.45
2022-09-02T11:31:28.423Z,4.35
2022-09-02T11:34:18.282Z,4.75
2022-09-02T11:36:57.242Z,6.25
2022-09-02T11:39:54.412Z,4.50
2022-09-02T11:42:57.669Z,4.32
2022-09-02T11:48:57.912Z,5.00
2022-09-02T11:51:38.962Z,4.13
2022-09-02T11:54:20.390Z,5.57
2022-09-02T11:57:01.856Z,10.38
2022-09-02T11:59:47.528Z,7.53
2022-09-02T12:02:34.682Z,4.10
2022-09-02T12:05:19.618Z,3.08
2022-09-02T12:07:57.281Z,3.63
2022-09-02T12:10:44.670Z,3.45
2022-09-02T12:13:34.927Z,4.70
2022-09-02T12:16:48.121Z,4.80
2022-09-02T12:19:29.276Z,3.65
2022-09-02T12:22:22.118Z,4.75
2022-09-02T12:24:53.945Z,4.18
2022-09-02T12:27:31.647Z,5.10
2022-09-02T12:30:23.037Z,3.10
2022-09-02T12:33:03.170Z,3.95
2022-09-02T12:35:53.483Z,3.22
2022-09-02T12:38:30.936Z,5.88
2022-09-02T12:41:13.603Z,5.47
2022-09-02T12:43:49.795Z,4.82
2022-09-02T12:46:24.622Z,4.45
2022-09-02T12:49:01.768Z,6.07
2022-09-02T12:51:57.021Z,4.07
2022-09-02T12:54:39.043Z,8.43
2022-09-02T12:57:18.134Z,5.00
2022-09-02T12:59:51.976Z,5.82
2022-09-02T13:02:36.469Z,3.70
2022-09-02T13:05:23.974Z,4.90
2022-09-02T13:08:11.595Z,4.63
2022-09-02T13:10:57.820Z,5.45
2022-09-02T13:13:44.657Z,6.78
2022-09-02T13:16:25.722Z,6.10
2022-09-02T13:19:22.315Z,5.60
2022-09-02T13:22:23.124Z,4.75
2022-09-02T13:25:22.873Z,5.07
2022-09-02T13:28:11.175Z,6.72
2022-09-02T13:30:55.252Z,8.20
2022-09-02T13:33:26.098Z,4.13
2022-09-02T13:36:05.677Z,6.28
2022-09-02T13:38:36.386Z,6.82
2022-09-02T13:41:13.224Z,8.40
2022-09-02T13:44:19.501Z,8.85
2022-09-02T13:47:04.321Z,7.85
2022-09-02T13:49:42.913Z,6.13
2022-09-02T13:52:17.112Z,7.38
2022-09-02T13:54:57.228Z,6.28
2022-09-02T13:57:37.562Z,6.60
2022-09-02T14:00:12.287Z,6.82
2022-09-02T14:03:17.367Z,6.03
2022-09-02T14:06:28.034Z,8.38
2022-09-02T14:09:00.505Z,8.85
2022-09-02T14:11:38.374Z,11.05
2022-09-02T14:14:35.408Z,11.88
2022-09-02T14:17:26.306Z,12.07
2022-09-02T14:20:13.731Z,11.13
2022-09-02T14:22:54.096Z,10.48
2022-09-02T14:25:30.712Z,10.65
2022-09-02T14:28:14.210Z,11.52
2022-09-02T14:30:43.745Z,8.20
2022-09-02T14:33:20.520Z,12.15
2022-09-02T14:36:11.727Z,8.73
2022-09-02T14:38:54.913Z,8.77
2022-09-02T14:41:26.857Z,7.32
2022-09-02T14:44:02.304Z,8.23
2022-09-02T14:46:35.463Z,7.53
2022-09-02T14:49:08.014Z,6.82
2022-09-02T14:51:43.853Z,7.80
2022-09-02T14:54:34.322Z,7.40
2022-09-02T14:57:20.212Z,9.43
2022-09-02T14:59:55.392Z,7.72
2022-09-02T15:02:36.887Z,8.35
2022-09-02T15:05:16.711Z,9.20
2022-09-02T15:07:52.563Z,7.97
2022-09-02T15:10:24.298Z,9.80
2022-09-02T15:13:04.667Z,10.63
2022-09-02T15:15:42.892Z,12.15
2022-09-02T15:18:18.771Z,9.00
2022-09-02T15:20:48.182Z,11.40
2022-09-02T15:23:18.988Z,9.57
2022-09-02T15:25:48.734Z,10.55
2022-09-02T15:28:22.815Z,8.63
2022-09-02T15:31:03.779Z,8.85
2022-09-02T15:33:40.869Z,10.02
2022-09-02T15:36:15.354Z,10.95
2022-09-02T15:38:58.629Z,11.77
2022-09-02T15:41:34.015Z,11.23
2022-09-02T15:44:10.368Z,11.90
2022-09-02T15:46:41.505Z,11.88
2022-09-02T15:49:15.768Z,9.95
2022-09-02T15:51:46.058Z,10.13
2022-09-02T15:54:22.170Z,11.82
2022-09-02T15:56:59.757Z,13.85
2022-09-02T15:59:31.301Z,12.05
2022-09-02T16:02:00.892Z,13.45
2022-09-02T16:04:30.147Z,16.35
2022-09-02T16:07:01.561Z,14.10
2022-09-02T16:09:32.456Z,12.60
2022-09-02T16:12:01.726Z,12.35
2022-09-02T16:14:38.672Z,10.95
2022-09-02T16:17:19.137Z,12.98
2022-09-02T16:19:51.867Z,16.05
2022-09-02T16:22:23.457Z,13.05
2022-09-02T16:24:58.531Z,15.13
2022-09-02T16:27:45.541Z,13.77
2022-09-02T16:30:22.205Z,12.13
2022-09-02T16:32:52.032Z,17.92
2022-09-02T16:35:25.919Z,13.90
2022-09-02T16:38:06.302Z,14.70
2022-09-02T16:40:47.617Z,13.52
2022-09-02T16:43:20.729Z,16.52
2022-09-02T16:45:59.457Z,14.82
2022-09-02T16:48:38.516Z,14.45
2022-09-02T16:51:13.271Z,13.40
2022-09-02T16:54:01.810Z,13.10
2022-09-02T16:56:45.205Z,16.95
2022-09-02T16:59:21.721Z,15.07
2022-09-02T17:02:03.085Z,14.68
2022-09-02T17:04:46.579Z,14.57
2022-09-02T17:07:19.088Z,15.75
2022-09-02T17:09:53.650Z,16.27
2022-09-02T17:12:30.173Z,13.70
2022-09-02T17:14:59.913Z,13.63
2022-09-02T17:17:36.600Z,15.32
2022-09-02T17:20:06.453Z,15.80
2022-09-02T17:22:46.318Z,15.43
2022-09-02T17:25:20.167Z,15.45
2022-09-02T17:27:50.884Z,12.45
2022-09-02T17:30:23.120Z,13.93
2022-09-02T17:32:56.386Z,14.48
2022-09-02T17:35:30.668Z,14.52
2022-09-02T17:38:02.094Z,13.55
2022-09-02T17:40:52.712Z,14.17
2022-09-02T17:43:33.161Z,13.13
2022-09-02T17:46:11.013Z,16.85
2022-09-02T17:48:59.439Z,13.77
2022-09-02T17:51:33.538Z,14.20
2022-09-02T17:54:05.861Z,16.75
2022-09-02T17:56:58.754Z,15.70
2022-09-02T17:59:36.203Z,13.20
2022-09-02T18:02:28.302Z,15.32
2022-09-02T18:05:12.563Z,17.70
2022-09-02T18:07:51.078Z,16.08
2022-09-02T18:10:27.982Z,16.10
2022-09-02T18:13:04.257Z,14.17
2022-09-02T18:16:20.805Z,17.83
2022-09-02T18:19:13.589Z,14.88
2022-09-02T18:24:33.103Z,14.48
2022-09-02T18:27:11.908Z,17.90
2022-09-02T18:29:56.451Z,18.30
2022-09-02T18:32:45.219Z,15.57
2022-09-02T18:35:21.411Z,18.40
2022-09-02T18:37:58.895Z,22.10
2022-09-02T18:40:33.518Z,18.13
2022-09-02T18:43:08.652Z,23.50
2022-09-02T18:45:51.242Z,21.10
2022-09-02T18:48:28.900Z,26.70
2022-09-02T18:50:59.545Z,20.15
2022-09-02T18:53:31.755Z,17.67
2022-09-02T18:56:07.043Z,19.45
2022-09-02T18:58:38.984Z,19.73
2022-09-02T19:01:11.523Z,22.85
2022-09-02T19:03:43.021Z,18.63
2022-09-02T19:06:14.439Z,18.95
2022-09-02T19:08:44.885Z,28.92
2022-09-02T19:14:01.496Z,21.98
2022-09-02T19:16:34.253Z,22.98
2022-09-02T19:19:09.464Z,24.58
2022-09-02T19:21:41.459Z,26.10
2022-09-02T19:24:12.842Z,25.30
2022-09-02T19:26:50.193Z,27.67
2022-09-02T19:29:27.678Z,29.08
2022-09-02T19:32:02.578Z,24.83
2022-09-02T19:34:41.063Z,25.27
2022-09-02T19:37:12.373Z,23.83
2022-09-02T19:39:46.788Z,23.13
2022-09-02T19:42:24.259Z,27.17
2022-09-02T19:45:01.274Z,27.17
2022-09-02T19:50:32.249Z,24.10
2022-09-02T19:53:02.216Z,22.75
2022-09-02T19:55:36.267Z,19.40
2022-09-02T19:58:09.101Z,16.88
2022-09-02T20:00:43.007Z,13.43
2022-09-02T20:03:13.117Z,10.27
2022-09-02T20:05:44.288Z,10.55
2022-09-02T20:08:19.912Z,9.93
2022-09-02T20:10:59.760Z,12.63
2022-09-02T20:13:30.148Z,18.17
2022-09-02T20:16:03.730Z,16.58
2022-09-02T20:18:33.768Z,17.80
2022-09-02T20:21:06.259Z,12.25
2022-09-02T20:23:39.279Z,13.50
2022-09-02T20:26:16.447Z,15.20
2022-09-02T20:28:54.146Z,17.95
2022-09-02T20:31:29.408Z,20.92
2022-09-02T20:34:08.719Z,12.70
2022-09-02T20:36:47.497Z,12.48
2022-09-02T20:39:29.549Z,12.90
2022-09-02T20:42:02.883Z,8.52
2022-09-02T20:44:44.957Z,11.15
2022-09-02T20:47:26.127Z,8.85
2022-09-02T20:50:06.325Z,8.85
2022-09-02T20:52:48.644Z,8.43
2022-09-02T20:55:23.627Z,10.18
2022-09-02T20:58:40.977Z,7.88
2022-09-02T21:01:18.911Z,10.88
2022-09-02T21:03:57.867Z,9.27
2022-09-02T21:06:38.221Z,9.00
2022-09-02T21:09:17.179Z,8.38
2022-09-02T21:11:52.260Z,9.55
2022-09-02T21:14:26.398Z,9.88
2022-09-02T21:17:02.269Z,10.35
2022-09-02T21:19:35.082Z,9.90
2022-09-02T21:22:16.032Z,9.20
2022-09-02T21:24:53.402Z,11.20
2022-09-02T21:27:35.175Z,11.18
2022-09-02T21:30:17.730Z,11.52
2022-09-02T21:32:52.134Z,10.32
2022-09-02T21:35:24.308Z,10.45
2022-09-02T21:37:59.201Z,11.73
2022-09-02T21:40:34.254Z,10.15
2022-09-02T21:43:23.465Z,12.45
2022-09-02T21:45:57.447Z,10.68
2022-09-02T21:48:35.069Z,9.82
2022-09-02T21:51:06.632Z,11.02
2022-09-02T21:53:45.308Z,10.07
2022-09-02T21:56:24.934Z,13.02
2022-09-02T21:59:15.410Z,12.73
2022-09-02T22:01:52.897Z,13.68
2022-09-02T22:04:27.591Z,12.65
2022-09-02T22:07:00.298Z,10.70
2022-09-02T22:09:32.155Z,14.65
2022-09-02T22:12:10.240Z,11.02
2022-09-02T22:14:45.196Z,11.90
2022-09-02T22:17:17.826Z,13.07
2022-09-02T22:19:56.197Z,15.00
2022-09-02T22:22:30.091Z,12.75
2022-09-02T22:24:59.817Z,11.75
2022-09-02T22:27:35.843Z,11.50
2022-09-02T22:30:10.273Z,13.40
2022-09-02T22:32:51.107Z,14.70
2022-09-02T22:35:34.252Z,12.93
2022-09-02T22:38:12.589Z,11.98
2022-09-02T22:40:44.538Z,12.13
2022-09-02T22:43:21.926Z,11.20
2022-09-02T22:46:14.447Z,12.40
2022-09-02T22:52:06.416Z,12.13
2022-09-02T22:54:36.347Z,14.57
2022-09-02T22:57:12.941Z,12.20
2022-09-02T22:59:49.230Z,14.65
2022-09-02T23:02:21.604Z,16.67
2022-09-02T23:04:56.986Z,14.82
2022-09-02T23:07:27.197Z,13.90
2022-09-02T23:10:01.312Z,16.33
2022-09-02T23:12:37.122Z,16.15
2022-09-02T23:15:18.299Z,17.95
2022-09-02T23:18:04.833Z,15.90
2022-09-02T23:20:45.470Z,16.88
2022-09-02T23:23:24.913Z,16.48
2022-09-02T23:26:12.048Z,15.93
2022-09-02T23:28:50.638Z,15.10
2022-09-02T23:31:30.820Z,16.92
2022-09-02T23:34:14.306Z,14.68
2022-09-02T23:36:52.532Z,17.20
2022-09-02T23:39:33.470Z,15.38
2022-09-02T23:42:08.158Z,18.02
2022-09-02T23:44:40.172Z,18.17
2022-09-02T23:47:26.178Z,17.45
2022-09-02T23:50:03.480Z,19.10
2022-09-02T23:52:41.818Z,19.33
2022-09-02T23:55:24.177Z,16.20
2022-09-02T23:58:06.032Z,19.67
